Bei Facebook empfehlenBei Twitter postenGoogle plusPinterest

Das Wetter im Erzgebirge am 15.05.2017

Wetter und Klima am 15.05.2017 Holzhau im Erzgebirge (630m ü.NN)
Letzte gemessene Temperatur und Uhrzeit der Messung23:45:00 Uhr6.30 °C
Temperatur (Maximum / Höchstwert) und Uhrzeit der Messung16:00:00 Uhr19.10 °C
Temperatur (Minimum / Tiefstwert) und Uhrzeit der Messung23:45:006.30 °C
Errechneter Absolutwert der Temperaturschwankungen zwischen Tmin und Tmax des Tages12.80 K
Errechnete Tagesmitteltemperatur13.14105 °C
Gesamt - Niederschlag des Tages (in flüssiger Form)0.00 Liter / m²
Luftdruck (Maximum / Höchstwert) und Zeitpunkt der Messung23:45:00 Uhr1026.00 hPa
Luftdruck (Minimum / Tiefstwert) und Zeitpunkt der Messung00:44:00 Uhr1020.20 hPa
Errechneter Absolutwert der Luftdruckschwankungen des Tages5.80 hPa
Höchste gemessene Windgeschwindigkeit und Uhrzeit der Messung13:00:00 Uhr20.88 km/h
Errechnete Windhäufigkeit in Relation zu den Messwerten des Tages9.47368 %
Niedrigste Windkühle (Windchill) und Zeitpunkt der Messung23:45:00 Uhr6.30 °C
Taupunkt (Maximum / Höchstwert) und Uhrzeit der Messung13:00:00 Uhr12.60 °C
Taupunkt (Minimum / Tiefstwert) und Uhrzeit der Messung23:45:004.60 °C
Anzahl der automatisch eingelesenen Messwerte 95

Detaillierte Wetter- und Klima- Messwerte für den 15.05.2017 in Holzhau im Erzgebirge (630m ü.NN)
ZeitTemperaturLuftdruckRel. LuftfeuchteWindWindrichtungWindchillTaupunktNiederschlag l/m²
23:45:006.30 °C1026.00 hPa89.00 %4.60 °C 
23:30:006.40 °C1025.90 hPa88.00 %4.60 °C 
23:15:006.60 °C1025.70 hPa87.00 %4.60 °C 
23:00:006.90 °C1025.60 hPa87.00 %4.90 °C 
22:45:006.90 °C1025.80 hPa86.00 %4.70 °C 
22:30:007.10 °C1025.80 hPa85.00 %4.80 °C 
22:15:007.30 °C1025.70 hPa84.00 %4.80 °C 
22:00:007.80 °C1025.70 hPa83.00 %5.10 °C 
21:45:008.30 °C1025.80 hPa81.00 %5.20 °C 
21:30:008.90 °C1025.60 hPa81.00 %5.80 °C 
21:15:009.80 °C1025.50 hPa79.00 %6.30 °C 
21:00:0010.80 °C1025.20 hPa77.00 %6.90 °C 
20:45:0011.80 °C1025.00 hPa75.00 %7.50 °C 
20:30:0012.80 °C1024.60 hPa74.00 %8.30 °C 
20:15:0013.50 °C1024.60 hPa70.00 %8.10 °C 
20:00:0014.40 °C1024.60 hPa68.00 %8.60 °C 
19:45:0014.90 °C1024.20 hPa67.00 %8.80 °C 
19:30:0015.50 °C1024.10 hPa66.00 %9.20 °C 
19:15:0015.90 °C1024.30 hPa65.00 %9.30 °C 
19:00:0016.30 °C1024.10 hPa64.00 %9.50 °C 
18:45:0016.60 °C1023.90 hPa63.00 %9.50 °C 
18:30:0017.00 °C1023.90 hPa64.00 %10.10 °C 
18:15:0016.10 °C1023.90 hPa68.00 %10.20 °C 
18:00:0015.90 °C1024.00 hPa68.00 %10.00 °C 
17:45:0016.20 °C1023.90 hPa67.00 %10.10 °C 
17:30:0016.70 °C1023.80 hPa64.00 %9.90 °C 
17:15:0017.50 °C1023.90 hPa61.00 %9.90 °C 
17:00:0018.30 °C1023.60 hPa60.00 %10.40 °C 
16:45:0018.60 °C1023.60 hPa60.00 %10.70 °C 
16:30:0018.30 °C1023.80 hPa60.00 %10.40 °C 
16:15:0019.00 °C1023.90 hPa60.00 %6.48 km/hN19.00 °C11.10 °C 
16:00:0019.10 °C1023.90 hPa60.00 %11.20 °C 
15:45:0018.60 °C1023.70 hPa60.00 %5.04 km/hWNW18.60 °C10.70 °C 
15:30:0018.20 °C1024.00 hPa62.00 %10.80 °C 
15:15:0018.30 °C1024.00 hPa63.00 %11.10 °C 
15:00:0018.20 °C1023.90 hPa64.00 %14.40 km/hWNW18.20 °C11.30 °C 
14:45:0018.20 °C1023.80 hPa62.00 %10.80 °C 
14:30:0018.20 °C1023.70 hPa64.00 %11.30 °C 
14:15:0017.90 °C1023.60 hPa67.00 %7.92 km/hWNW17.90 °C11.70 °C 
14:00:0018.10 °C1023.70 hPa65.00 %11.40 °C 
13:45:0018.10 °C1023.90 hPa65.00 %11.40 °C 
13:30:0018.40 °C1023.90 hPa68.00 %10.44 km/hNO18.40 °C12.40 °C 
13:15:0017.80 °C1023.90 hPa69.00 %5.04 km/hWNW17.80 °C12.00 °C 
13:00:0017.90 °C1023.90 hPa71.00 %20.88 km/hW18.60 °C12.60 °C 
12:45:0016.90 °C1023.80 hPa71.00 %11.60 °C 
12:29:0016.30 °C1024.10 hPa74.00 %11.70 °C 
12:14:0016.40 °C1024.00 hPa70.00 %10.90 °C 
11:59:0016.60 °C1024.00 hPa72.00 %2.52 km/hWNW16.60 °C11.50 °C 
11:44:0015.60 °C1024.10 hPa74.00 %11.00 °C 
11:29:0016.40 °C1023.90 hPa70.00 %10.90 °C 
11:14:0016.50 °C1023.90 hPa71.00 %11.20 °C 
10:59:0016.80 °C1023.90 hPa71.00 %11.50 °C 
10:44:0017.00 °C1023.90 hPa72.00 %14.40 km/hWSW17.00 °C11.90 °C 
10:29:0016.60 °C1023.60 hPa74.00 %12.00 °C 
10:14:0015.90 °C1023.40 hPa75.00 %11.50 °C 
09:59:0015.40 °C1023.30 hPa76.00 %11.20 °C 
09:44:0015.20 °C1023.20 hPa78.00 %11.40 °C 
09:29:0014.90 °C1023.10 hPa79.00 %11.30 °C 
09:14:0014.50 °C1023.00 hPa79.00 %10.90 °C 
08:59:0014.80 °C1022.80 hPa79.00 %11.20 °C 
08:44:0014.50 °C1022.80 hPa81.00 %11.30 °C 
08:29:0014.60 °C1022.70 hPa81.00 %11.40 °C 
08:14:0014.60 °C1022.70 hPa81.00 %11.40 °C 
07:59:0014.60 °C1022.50 hPa83.00 %11.70 °C 
07:44:0014.00 °C1022.40 hPa87.00 %11.90 °C 
07:29:0013.00 °C1022.40 hPa92.00 %11.70 °C 
07:14:0010.90 °C1022.20 hPa94.00 %10.00 °C 
06:59:008.90 °C1022.30 hPa94.00 %8.00 °C 
06:44:009.10 °C1022.30 hPa94.00 %8.20 °C 
06:29:009.00 °C1022.10 hPa94.00 %8.10 °C 
06:14:008.80 °C1021.90 hPa94.00 %7.90 °C 
05:59:008.80 °C1021.60 hPa93.00 %7.70 °C 
05:44:008.90 °C1021.50 hPa93.00 %7.80 °C 
05:29:008.90 °C1021.40 hPa94.00 %8.00 °C 
05:14:008.90 °C1021.30 hPa93.00 %7.80 °C 
04:59:008.90 °C1021.20 hPa93.00 %7.80 °C 
04:44:008.80 °C1021.20 hPa93.00 %7.70 °C 
04:29:008.70 °C1021.30 hPa93.00 %7.60 °C 
04:14:008.60 °C1021.30 hPa93.00 %7.50 °C 
03:59:008.60 °C1021.20 hPa92.00 %7.40 °C 
03:44:008.80 °C1021.30 hPa92.00 %7.60 °C 
03:29:009.00 °C1021.10 hPa92.00 %7.80 °C 
03:14:009.10 °C1021.00 hPa92.00 %7.90 °C 
02:59:009.30 °C1020.70 hPa92.00 %8.10 °C 
02:44:009.60 °C1020.70 hPa92.00 %8.40 °C 
02:29:009.50 °C1020.80 hPa92.00 %8.30 °C 
02:14:009.60 °C1020.60 hPa92.00 %8.40 °C 
01:59:009.80 °C1020.70 hPa92.00 %8.60 °C 
01:44:009.80 °C1020.70 hPa92.00 %8.60 °C 
01:29:009.90 °C1020.60 hPa92.00 %8.70 °C 
01:14:0010.30 °C1020.50 hPa92.00 %9.10 °C 
00:59:0010.40 °C1020.40 hPa92.00 %9.20 °C 
00:44:0010.40 °C1020.20 hPa92.00 %9.20 °C 
00:29:0010.40 °C1020.30 hPa93.00 %9.30 °C 
00:14:0010.20 °C1020.20 hPa92.00 %9.00 °C 

Permanenter Link zu dieser Seite: Wetter im Erzgebirge am 15.05.2017
Performance-Info: Die Erstellung der Seite / Statistik(en) / Tabelle(n) erforderte 5 Datenbankserver-Abfrage(n) und dauerte 122 Millisekunden. (Dieser Messwert ist von der Gesamt-Auslastung des Servers abhängig.)
Erzgebirge - Wetter | Erzgebirge - Wetter (Mobilgeräte) | Komplette Klimadatenbank